Time;durP1;ratioP1;P1;durP2;ratioP2;P2;SDS_P1;SDS_P2;PMS_P1;PMS_P2;Temp;Humidity;BMP_temperature;BMP_pressure;BME280_temperature;BME280_humidity;BME280_pressure;Samples;Min_cycle;Max_cycle;Signal;HPM_P1;HPM_P2
2022/05/02 00:00:42;;;;;;;14.73;8.52;;;;;;;;;;5071647;28;20019;-69
2022/05/02 00:03:08;;;;;;;14.70;8.25;;;;;;;;;;5073258;28;20146;-69
2022/05/02 00:05:34;;;;;;;16.48;8.98;;;;;;;;;;5071539;28;20062;-69
2022/05/02 00:07:59;;;;;;;16.27;8.77;;;;;;;;;;5070993;28;20103;-69
2022/05/02 00:10:24;;;;;;;16.15;8.82;;;;;;;;;;5069805;28;20399;-72
2022/05/02 00:12:49;;;;;;;15.52;8.07;;;;;;;;;;5067731;28;20024;-71
2022/05/02 00:15:15;;;;;;;15.80;8.77;;;;;;;;;;5071322;28;20564;-71
2022/05/02 00:17:59;;;;;;;16.35;8.60;;;;;;;;;;5072593;28;20020;-71
2022/05/02 00:20:31;;;;;;;15.68;9.23;;;;;;;;;;5070189;28;20449;-69
2022/05/02 00:22:58;;;;;;;18.48;9.63;;;;;;;;;;5069753;28;20016;-69
2022/05/02 00:25:23;;;;;;;17.80;9.40;;;;;;;;;;5072053;28;20095;-68
2022/05/02 00:27:48;;;;;;;17.40;9.55;;;;;;;;;;5071887;28;20103;-71
2022/05/02 00:30:15;;;;;;;18.02;9.48;;;;;;;;;;5071272;28;20020;-69
2022/05/02 00:32:40;;;;;;;18.67;10.38;;;;;;;;;;5071399;28;20020;-69
2022/05/02 00:35:06;;;;;;;19.63;10.32;;;;;;;;;;5069609;28;20017;-68
2022/05/02 00:37:32;;;;;;;22.48;10.00;;;;;;;;;;5057738;28;20024;-69
2022/05/02 00:39:57;;;;;;;16.23;10.35;;;;;;;;;;5069492;28;20047;-69
2022/05/02 00:42:22;;;;;;;20.30;11.27;;;;;;;;;;5072627;28;20055;-68
2022/05/02 00:44:47;;;;;;;20.17;11.02;;;;;;;;;;5072225;28;20380;-68
2022/05/02 00:47:20;;;;;;;22.63;10.75;;;;;;;;;;5072161;28;20024;-68
2022/05/02 00:49:45;;;;;;;15.68;9.00;;;;;;;;;;5054306;28;20534;-70
2022/05/02 00:52:10;;;;;;;22.85;11.38;;;;;;;;;;5071215;28;20032;-68
2022/05/02 00:54:37;;;;;;;16.15;9.07;;;;;;;;;;5070492;28;20019;-69
2022/05/02 00:57:04;;;;;;;18.05;10.35;;;;;;;;;;5070880;28;20024;-68
2022/05/02 00:59:29;;;;;;;26.98;11.13;;;;;;;;;;5071661;28;20012;-68
2022/05/02 01:01:54;;;;;;;18.50;9.87;;;;;;;;;;5072437;28;20096;-71
2022/05/02 01:04:19;;;;;;;19.27;9.98;;;;;;;;;;5068824;28;20846;-69
2022/05/02 01:09:30;;;;;;;19.58;10.05;;;;;;;;;;5070710;28;20031;-72
2022/05/02 01:11:55;;;;;;;18.38;10.38;;;;;;;;;;5071683;28;20033;-72
2022/05/02 01:14:20;;;;;;;18.23;10.03;;;;;;;;;;5049761;28;20077;-68
2022/05/02 01:16:45;;;;;;;20.67;12.02;;;;;;;;;;5069078;28;20281;-72
2022/05/02 01:19:11;;;;;;;21.08;11.13;;;;;;;;;;5069343;28;20021;-72
2022/05/02 01:21:37;;;;;;;23.77;12.23;;;;;;;;;;5070643;28;20033;-71
2022/05/02 01:24:03;;;;;;;20.30;10.57;;;;;;;;;;5071142;28;20114;-70
2022/05/02 01:26:28;;;;;;;23.25;11.98;;;;;;;;;;5068940;28;20024;-71
2022/05/02 01:28:55;;;;;;;19.95;10.63;;;;;;;;;;5070475;28;20016;-71
2022/05/02 01:31:20;;;;;;;16.30;10.25;;;;;;;;;;5071124;28;20017;-70
2022/05/02 01:33:46;;;;;;;21.90;11.52;;;;;;;;;;5069621;28;20641;-71
2022/05/02 01:36:11;;;;;;;21.73;12.48;;;;;;;;;;5070933;28;20021;-71
2022/05/02 01:38:37;;;;;;;20.10;11.63;;;;;;;;;;5070556;28;20024;-72
2022/05/02 01:41:03;;;;;;;19.55;11.40;;;;;;;;;;5068846;28;20012;-68
2022/05/02 01:43:28;;;;;;;22.63;11.45;;;;;;;;;;5068218;28;20017;-68
2022/05/02 01:45:54;;;;;;;23.85;12.55;;;;;;;;;;5070709;28;20016;-69
2022/05/02 01:48:19;;;;;;;22.95;12.00;;;;;;;;;;5070109;28;20509;-68
2022/05/02 01:50:44;;;;;;;21.98;11.77;;;;;;;;;;5069818;28;20027;-69
2022/05/02 01:53:09;;;;;;;21.75;12.10;;;;;;;;;;5069619;28;20420;-70
2022/05/02 01:55:34;;;;;;;20.60;10.57;;;;;;;;;;5069348;28;20373;-69
2022/05/02 01:58:00;;;;;;;19.60;11.20;;;;;;;;;;5069794;28;20431;-69
2022/05/02 02:00:25;;;;;;;20.50;11.90;;;;;;;;;;5069532;28;20346;-68
2022/05/02 02:02:50;;;;;;;22.60;12.10;;;;;;;;;;5068131;28;20286;-68
2022/05/02 02:07:59;;;;;;;22.40;13.05;;;;;;;;;;5069748;28;20082;-71
2022/05/02 02:10:24;;;;;;;22.02;11.30;;;;;;;;;;5068740;28;20016;-71
2022/05/02 02:12:50;;;;;;;21.67;12.35;;;;;;;;;;5069296;28;20062;-71
2022/05/02 02:15:15;;;;;;;20.55;12.05;;;;;;;;;;5069232;28;20397;-71
2022/05/02 02:17:41;;;;;;;17.95;10.18;;;;;;;;;;5069705;28;20024;-71
2022/05/02 02:20:06;;;;;;;18.45;10.48;;;;;;;;;;5069327;28;20068;-71
2022/05/02 02:22:32;;;;;;;17.48;10.85;;;;;;;;;;5069266;28;20032;-71
2022/05/02 02:24:57;;;;;;;28.30;12.15;;;;;;;;;;5068635;28;20055;-71
2022/05/02 02:27:22;;;;;;;22.52;10.93;;;;;;;;;;5069274;28;20039;-72
2022/05/02 02:29:47;;;;;;;22.63;11.82;;;;;;;;;;5070489;28;20021;-72
2022/05/02 02:32:12;;;;;;;19.20;9.60;;;;;;;;;;5067863;28;20028;-69
2022/05/02 02:34:38;;;;;;;24.23;11.32;;;;;;;;;;5070528;28;20956;-68
2022/05/02 02:37:03;;;;;;;18.63;10.38;;;;;;;;;;5068155;28;20020;-72
2022/05/02 02:39:28;;;;;;;20.92;10.82;;;;;;;;;;5069742;28;20023;-72
2022/05/02 02:41:53;;;;;;;29.80;12.37;;;;;;;;;;5069525;28;20016;-70
2022/05/02 02:44:18;;;;;;;20.57;11.23;;;;;;;;;;5069833;28;20643;-68
2022/05/02 02:46:44;;;;;;;20.33;11.17;;;;;;;;;;5068683;28;20349;-70
2022/05/02 02:49:09;;;;;;;19.03;10.77;;;;;;;;;;5068186;28;20270;-68
2022/05/02 02:51:34;;;;;;;22.67;12.47;;;;;;;;;;5068269;28;20308;-70
2022/05/02 02:53:59;;;;;;;17.60;11.57;;;;;;;;;;5069655;28;20366;-70
2022/05/02 02:56:24;;;;;;;18.63;11.20;;;;;;;;;;5068341;28;20266;-70
2022/05/02 02:58:49;;;;;;;19.40;10.52;;;;;;;;;;5069414;28;20281;-70
2022/05/02 03:01:15;;;;;;;18.25;10.10;;;;;;;;;;5069395;28;20044;-70
2022/05/02 03:03:40;;;;;;;24.63;12.23;;;;;;;;;;5068388;28;20609;-69
2022/05/02 03:06:05;;;;;;;23.98;11.25;;;;;;;;;;5066604;28;20287;-68
2022/05/02 03:08:34;;;;;;;22.48;12.07;;;;;;;;;;5069928;28;20074;-68
2022/05/02 03:11:00;;;;;;;20.00;11.18;;;;;;;;;;5068485;28;20464;-71
2022/05/02 03:13:25;;;;;;;25.30;12.27;;;;;;;;;;5069502;28;20026;-71
2022/05/02 03:15:51;;;;;;;21.83;11.80;;;;;;;;;;5068291;28;20104;-71
2022/05/02 03:18:16;;;;;;;23.40;13.38;;;;;;;;;;5068965;28;20074;-70
2022/05/02 03:20:41;;;;;;;22.02;13.23;;;;;;;;;;5068371;28;20056;-69
2022/05/02 03:23:06;;;;;;;24.83;14.10;;;;;;;;;;5068741;28;20423;-70
2022/05/02 03:25:31;;;;;;;26.27;14.07;;;;;;;;;;5068351;28;20271;-69
2022/05/02 03:27:56;;;;;;;23.70;13.43;;;;;;;;;;5068643;28;20024;-70
2022/05/02 03:30:22;;;;;;;30.37;13.80;;;;;;;;;;5067520;28;20032;-72
2022/05/02 03:32:47;;;;;;;29.23;14.07;;;;;;;;;;5068082;28;20287;-71
2022/05/02 03:35:12;;;;;;;32.22;14.88;;;;;;;;;;5067075;28;20024;-72
2022/05/02 03:37:37;;;;;;;25.67;14.30;;;;;;;;;;5068170;28;20013;-70
2022/05/02 03:40:03;;;;;;;31.15;14.35;;;;;;;;;;5067717;28;20024;-71
2022/05/02 03:42:28;;;;;;;23.85;12.40;;;;;;;;;;5068054;28;20036;-72
2022/05/02 03:44:54;;;;;;;21.50;12.18;;;;;;;;;;5067670;28;20388;-68
2022/05/02 03:47:19;;;;;;;24.40;13.80;;;;;;;;;;5066412;28;20082;-68
2022/05/02 03:49:44;;;;;;;25.35;13.18;;;;;;;;;;5069024;28;20024;-68
2022/05/02 03:52:09;;;;;;;21.00;13.70;;;;;;;;;;5068487;28;20100;-71
2022/05/02 03:54:35;;;;;;;21.40;12.10;;;;;;;;;;5068796;28;20273;-68
2022/05/02 03:57:00;;;;;;;23.10;13.05;;;;;;;;;;5068146;28;20089;-68
2022/05/02 03:59:25;;;;;;;22.17;13.15;;;;;;;;;;5068407;28;20499;-68
2022/05/02 04:01:50;;;;;;;24.65;13.23;;;;;;;;;;5068315;28;20019;-68
2022/05/02 04:04:15;;;;;;;19.88;11.95;;;;;;;;;;5068526;28;20020;-71
2022/05/02 04:06:41;;;;;;;20.20;11.83;;;;;;;;;;5068096;28;20565;-70
2022/05/02 04:09:06;;;;;;;20.92;11.77;;;;;;;;;;5068031;28;20366;-68
2022/05/02 04:11:31;;;;;;;20.30;11.88;;;;;;;;;;5068517;28;20021;-68
2022/05/02 04:13:56;;;;;;;17.77;10.50;;;;;;;;;;5068657;28;20021;-70
2022/05/02 04:16:21;;;;;;;24.65;11.40;;;;;;;;;;5072424;28;20281;-68
2022/05/02 04:18:47;;;;;;;19.33;10.23;;;;;;;;;;5071342;28;20053;-74
2022/05/02 04:21:13;;;;;;;20.17;10.93;;;;;;;;;;5072452;28;20012;-72
2022/05/02 04:23:38;;;;;;;27.10;11.07;;;;;;;;;;5070863;28;20028;-72
2022/05/02 04:26:03;;;;;;;20.63;10.40;;;;;;;;;;5070215;28;20029;-71
2022/05/02 04:28:28;;;;;;;16.70;10.68;;;;;;;;;;5060802;28;20778;-71
2022/05/02 04:30:54;;;;;;;22.42;10.07;;;;;;;;;;5071941;28;20045;-72
2022/05/02 04:33:19;;;;;;;20.05;10.32;;;;;;;;;;5070776;28;20016;-71
2022/05/02 04:35:44;;;;;;;19.02;11.02;;;;;;;;;;5071470;28;20419;-71
2022/05/02 04:38:09;;;;;;;19.30;10.32;;;;;;;;;;5070704;28;20021;-71
2022/05/02 04:40:35;;;;;;;31.42;10.57;;;;;;;;;;5070582;28;20074;-72
2022/05/02 04:43:00;;;;;;;19.92;10.50;;;;;;;;;;5072365;28;20125;-72
2022/05/02 04:45:25;;;;;;;21.40;11.57;;;;;;;;;;5071644;28;20043;-71
2022/05/02 04:47:50;;;;;;;17.75;10.77;;;;;;;;;;5052891;28;20370;-71
2022/05/02 04:50:16;;;;;;;19.63;10.88;;;;;;;;;;5071097;28;20027;-71
2022/05/02 04:52:41;;;;;;;17.58;10.80;;;;;;;;;;5070663;28;20444;-71
2022/05/02 04:55:06;;;;;;;24.52;13.77;;;;;;;;;;5070643;28;20009;-72
2022/05/02 04:57:32;;;;;;;19.52;11.50;;;;;;;;;;5069656;28;20012;-69
2022/05/02 04:59:57;;;;;;;21.15;11.13;;;;;;;;;;5071707;28;20055;-71
2022/05/02 05:02:22;;;;;;;20.70;11.32;;;;;;;;;;5073122;28;20020;-70
2022/05/02 05:04:47;;;;;;;23.05;11.38;;;;;;;;;;5071270;28;20369;-71
2022/05/02 05:07:12;;;;;;;21.13;11.05;;;;;;;;;;5070050;28;20020;-69
2022/05/02 05:09:38;;;;;;;16.75;9.82;;;;;;;;;;5070554;28;20056;-72
2022/05/02 05:12:06;;;;;;;22.07;12.03;;;;;;;;;;5070920;28;20027;-70
2022/05/02 05:17:49;;;;;;;22.45;11.15;;;;;;;;;;5068089;28;20118;-72
2022/05/02 05:20:33;;;;;;;18.88;12.52;;;;;;;;;;5068429;22;20045;-69
2022/05/02 05:22:58;;;;;;;27.15;12.07;;;;;;;;;;5049888;28;20096;-68
2022/05/02 05:25:23;;;;;;;19.38;11.32;;;;;;;;;;5051485;28;20171;-70
2022/05/02 05:27:48;;;;;;;19.33;10.43;;;;;;;;;;5045282;28;20267;-71
2022/05/02 05:30:17;;;;;;;19.17;11.07;;;;;;;;;;5049307;28;20362;-71
2022/05/02 05:32:44;;;;;;;23.13;12.00;;;;;;;;;;5048739;28;20079;-71
2022/05/02 05:35:10;;;;;;;20.90;10.63;;;;;;;;;;5037569;28;20021;-71
2022/05/02 05:37:41;;;;;;;20.65;11.13;;;;;;;;;;5050175;28;20357;-71
2022/05/02 05:40:19;;;;;;;20.88;11.60;;;;;;;;;;5049164;28;20020;-71
2022/05/02 05:42:45;;;;;;;26.45;11.05;;;;;;;;;;5048519;28;20078;-71
2022/05/02 05:45:14;;;;;;;20.80;10.63;;;;;;;;;;5050322;28;20024;-71
2022/05/02 05:47:58;;;;;;;19.17;10.88;;;;;;;;;;5049637;28;20117;-71
2022/05/02 05:50:29;;;;;;;19.27;10.88;;;;;;;;;;5049258;28;20536;-71
2022/05/02 05:53:13;;;;;;;21.08;10.38;;;;;;;;;;5046731;28;20036;-71
2022/05/02 05:55:56;;;;;;;21.73;10.88;;;;;;;;;;5046986;28;20120;-71
2022/05/02 05:58:45;;;;;;;21.75;11.85;;;;;;;;;;5042815;28;20021;-71
2022/05/02 06:01:11;;;;;;;23.25;11.90;;;;;;;;;;5044121;28;20056;-71
2022/05/02 06:03:54;;;;;;;21.70;10.73;;;;;;;;;;5020414;28;20048;-71
2022/05/02 06:06:22;;;;;;;16.85;10.45;;;;;;;;;;5043211;28;20112;-71
2022/05/02 06:08:50;;;;;;;20.33;10.07;;;;;;;;;;5048207;28;20029;-71
2022/05/02 06:11:15;;;;;;;18.13;10.13;;;;;;;;;;5050165;28;20032;-71
2022/05/02 06:13:42;;;;;;;18.45;9.77;;;;;;;;;;5048269;28;20021;-69
2022/05/02 06:18:53;;;;;;;20.67;11.20;;;;;;;;;;5048664;28;20065;-71
2022/05/02 06:21:20;;;;;;;20.20;11.90;;;;;;;;;;5050739;28;20040;-70
2022/05/02 06:23:47;;;;;;;22.17;12.30;;;;;;;;;;5048049;28;20033;-71
2022/05/02 06:26:14;;;;;;;27.30;11.93;;;;;;;;;;5049761;28;20110;-71
2022/05/02 06:28:40;;;;;;;19.13;11.25;;;;;;;;;;5046297;28;21914;-71
2022/05/02 06:31:09;;;;;;;23.55;12.00;;;;;;;;;;5050662;28;20101;-71
2022/05/02 06:33:34;;;;;;;21.35;11.38;;;;;;;;;;5047465;28;20024;-71
2022/05/02 06:36:21;;;;;;;20.52;10.30;;;;;;;;;;5049556;28;20389;-71
2022/05/02 06:38:52;;;;;;;19.75;11.50;;;;;;;;;;5046389;28;20020;-71
2022/05/02 06:41:36;;;;;;;17.83;10.63;;;;;;;;;;5049424;28;20009;-71
2022/05/02 06:44:04;;;;;;;25.02;12.50;;;;;;;;;;5045422;28;20064;-71
2022/05/02 06:46:33;;;;;;;23.40;11.40;;;;;;;;;;5047886;28;20020;-71
2022/05/02 06:49:02;;;;;;;17.33;11.20;;;;;;;;;;5045171;28;20049;-71
2022/05/02 06:51:30;;;;;;;18.73;10.30;;;;;;;;;;5043906;28;20033;-71
2022/05/02 06:54:12;;;;;;;24.23;11.43;;;;;;;;;;5044038;28;20564;-71
2022/05/02 06:56:44;;;;;;;28.52;12.00;;;;;;;;;;5045441;28;20507;-71
2022/05/02 06:59:28;;;;;;;20.63;10.48;;;;;;;;;;5045736;28;20100;-71
2022/05/02 07:02:09;;;;;;;23.88;10.45;;;;;;;;;;5050232;28;20013;-71
2022/05/02 07:04:53;;;;;;;22.25;10.70;;;;;;;;;;5045967;28;20024;-71
2022/05/02 07:07:18;;;;;;;19.52;10.68;;;;;;;;;;5046559;28;20465;-71
2022/05/02 07:09:44;;;;;;;24.25;10.02;;;;;;;;;;5047112;28;20027;-71
2022/05/02 07:12:11;;;;;;;26.00;10.25;;;;;;;;;;5046813;28;20037;-71
2022/05/02 07:14:46;;;;;;;21.90;9.75;;;;;;;;;;5046713;28;20096;-71
2022/05/02 07:17:32;;;;;;;20.65;10.13;;;;;;;;;;5046171;28;20013;-71
2022/05/02 07:20:04;;;;;;;24.10;9.68;;;;;;;;;;5040914;28;20079;-69
2022/05/02 07:22:34;;;;;;;20.70;10.30;;;;;;;;;;5046554;28;20079;-69
2022/05/02 07:25:09;;;;;;;16.27;10.02;;;;;;;;;;5045397;28;20730;-69
2022/05/02 07:27:35;;;;;;;22.02;10.35;;;;;;;;;;5041478;28;20107;-69
2022/05/02 07:30:00;;;;;;;17.77;10.05;;;;;;;;;;5043929;28;20615;-69
2022/05/02 07:32:26;;;;;;;18.92;9.52;;;;;;;;;;5047624;28;20037;-69
2022/05/02 07:34:52;;;;;;;16.02;9.10;;;;;;;;;;5046231;28;20021;-69
2022/05/02 07:37:19;;;;;;;21.65;9.43;;;;;;;;;;5046280;28;20052;-69
2022/05/02 07:39:45;;;;;;;14.35;8.10;;;;;;;;;;5044933;28;20017;-69
2022/05/02 07:42:12;;;;;;;15.50;9.20;;;;;;;;;;5046002;28;20021;-69
2022/05/02 07:44:38;;;;;;;18.75;9.52;;;;;;;;;;5048247;28;20031;-69
2022/05/02 07:47:06;;;;;;;19.98;9.15;;;;;;;;;;5047247;28;20373;-69
2022/05/02 07:49:33;;;;;;;23.67;11.20;;;;;;;;;;5045424;28;20024;-69
2022/05/02 07:52:00;;;;;;;17.02;10.10;;;;;;;;;;5050790;28;20454;-69
2022/05/02 07:54:26;;;;;;;19.80;9.80;;;;;;;;;;5044626;28;20017;-69
2022/05/02 07:56:55;;;;;;;15.30;9.50;;;;;;;;;;5051719;28;20016;-69
2022/05/02 07:59:23;;;;;;;18.73;9.02;;;;;;;;;;5048717;28;20025;-69
2022/05/02 08:01:49;;;;;;;16.35;8.95;;;;;;;;;;5051551;28;20027;-69
2022/05/02 08:04:14;;;;;;;15.33;9.17;;;;;;;;;;5046364;28;20490;-69
2022/05/02 08:06:51;;;;;;;17.77;8.77;;;;;;;;;;5047204;28;20779;-69
2022/05/02 08:09:28;;;;;;;15.95;8.52;;;;;;;;;;5048762;28;20025;-69
2022/05/02 08:12:11;;;;;;;13.45;8.73;;;;;;;;;;5050076;28;20496;-69
2022/05/02 08:14:45;;;;;;;13.82;9.35;;;;;;;;;;5046063;28;20068;-69
2022/05/02 08:17:33;;;;;;;16.63;9.82;;;;;;;;;;5052016;28;20017;-69
2022/05/02 08:20:17;;;;;;;18.48;10.27;;;;;;;;;;5049761;28;20024;-69
2022/05/02 08:28:30;;;;;;;24.88;10.32;;;;;;;;;;5049294;28;20545;-69
2022/05/02 08:31:12;;;;;;;17.25;10.32;;;;;;;;;;5047976;28;20025;-69
2022/05/02 08:33:40;;;;;;;13.70;8.90;;;;;;;;;;5049018;28;20032;-68
2022/05/02 08:36:19;;;;;;;14.98;8.95;;;;;;;;;;5052084;28;20017;-69
2022/05/02 08:38:46;;;;;;;21.40;9.88;;;;;;;;;;5032945;28;20062;-69
2022/05/02 08:41:33;;;;;;;20.35;9.60;;;;;;;;;;5048371;28;20021;-69
2022/05/02 08:44:01;;;;;;;23.17;10.43;;;;;;;;;;5029645;28;20028;-68
2022/05/02 08:46:29;;;;;;;15.27;9.70;;;;;;;;;;5050454;28;20032;-69
2022/05/02 08:52:07;;;;;;;20.23;9.63;;;;;;;;;;5048330;28;20491;-69
2022/05/02 08:54:41;;;;;;;19.88;9.80;;;;;;;;;;5051732;28;20028;-69
2022/05/02 08:57:17;;;;;;;27.70;9.55;;;;;;;;;;5047924;28;20102;-69
2022/05/02 08:59:51;;;;;;;19.95;10.18;;;;;;;;;;5052137;28;20477;-69
2022/05/02 09:02:25;;;;;;;19.75;10.65;;;;;;;;;;5050689;28;20024;-69
2022/05/02 09:04:50;;;;;;;18.02;8.68;;;;;;;;;;5051473;28;20046;-68
2022/05/02 09:07:15;;;;;;;27.50;9.85;;;;;;;;;;5047528;28;20477;-69
2022/05/02 09:10:04;;;;;;;17.67;9.93;;;;;;;;;;5050137;28;20028;-69
2022/05/02 09:12:33;;;;;;;15.57;10.07;;;;;;;;;;5046420;28;20296;-68
2022/05/02 09:14:58;;;;;;;20.33;10.32;;;;;;;;;;5049495;28;20024;-68
2022/05/02 09:17:42;;;;;;;18.90;10.88;;;;;;;;;;5049607;28;20013;-69
2022/05/02 09:20:25;;;;;;;19.25;11.18;;;;;;;;;;5048733;28;20040;-69
2022/05/02 09:22:53;;;;;;;18.95;10.65;;;;;;;;;;5047509;28;20536;-71
2022/05/02 09:25:39;;;;;;;17.83;9.18;;;;;;;;;;5050820;28;20106;-69
2022/05/02 09:28:24;;;;;;;14.18;9.93;;;;;;;;;;5048491;28;20060;-69
2022/05/02 09:31:11;;;;;;;18.00;10.07;;;;;;;;;;5008237;28;20053;-69
2022/05/02 09:33:48;;;;;;;17.70;8.88;;;;;;;;;;5048518;28;20037;-69
2022/05/02 09:36:24;;;;;;;19.15;9.57;;;;;;;;;;5049597;28;20041;-68
2022/05/02 09:38:51;;;;;;;17.23;9.25;;;;;;;;;;5041330;28;20051;-69
2022/05/02 09:41:19;;;;;;;20.17;9.38;;;;;;;;;;5048162;28;20013;-69
2022/05/02 09:49:52;;;;;;;20.20;10.65;;;;;;;;;;5044755;28;20128;-69
2022/05/02 09:52:26;;;;;;;18.05;10.27;;;;;;;;;;5047529;28;20032;-69
2022/05/02 09:57:59;;;;;;;21.33;10.20;;;;;;;;;;5049462;28;20071;-69
2022/05/02 10:03:15;;;;;;;15.98;9.80;;;;;;;;;;5042775;28;20043;-70
2022/05/02 10:05:48;;;;;;;19.98;10.25;;;;;;;;;;5043229;28;20094;-70
2022/05/02 10:08:22;;;;;;;16.08;9.70;;;;;;;;;;5045195;28;20025;-70
2022/05/02 10:10:56;;;;;;;18.15;10.32;;;;;;;;;;5047104;28;20020;-69
2022/05/02 10:13:32;;;;;;;19.88;10.75;;;;;;;;;;5047924;28;20017;-69
2022/05/02 10:15:58;;;;;;;23.77;9.68;;;;;;;;;;5050992;28;20013;-69
2022/05/02 10:18:42;;;;;;;21.63;9.75;;;;;;;;;;5049373;28;20013;-70
2022/05/02 10:21:10;;;;;;;18.40;9.57;;;;;;;;;;5050501;28;20040;-70
2022/05/02 10:23:47;;;;;;;18.15;10.02;;;;;;;;;;5051207;28;20025;-69
2022/05/02 10:26:28;;;;;;;17.98;9.45;;;;;;;;;;5049434;28;20017;-69
2022/05/02 10:29:12;;;;;;;18.40;9.27;;;;;;;;;;5049515;28;20032;-69
2022/05/02 10:31:38;;;;;;;24.65;9.23;;;;;;;;;;5048211;28;20120;-69
2022/05/02 10:34:04;;;;;;;17.75;10.65;;;;;;;;;;5038293;28;20103;-69
2022/05/02 10:36:35;;;;;;;18.40;9.77;;;;;;;;;;5047647;28;20088;-69
2022/05/02 10:39:06;;;;;;;25.25;9.77;;;;;;;;;;5050008;28;20116;-69
2022/05/02 10:41:51;;;;;;;16.05;8.95;;;;;;;;;;5047287;28;20027;-70
2022/05/02 10:44:17;;;;;;;27.70;10.10;;;;;;;;;;5034137;28;20111;-69
2022/05/02 10:46:46;;;;;;;13.10;9.15;;;;;;;;;;5049662;28;20509;-69
2022/05/02 10:49:14;;;;;;;18.33;9.77;;;;;;;;;;5049369;28;20021;-69
2022/05/02 10:51:40;;;;;;;18.92;9.90;;;;;;;;;;5050036;28;20100;-69
2022/05/02 10:54:08;;;;;;;20.08;10.07;;;;;;;;;;5050405;28;20024;-69
2022/05/02 10:56:51;;;;;;;16.20;9.02;;;;;;;;;;5047987;28;20568;-69
2022/05/02 10:59:22;;;;;;;13.05;8.63;;;;;;;;;;5049548;28;20295;-69
2022/05/02 11:01:56;;;;;;;17.65;9.00;;;;;;;;;;5047827;28;20069;-70
2022/05/02 11:04:27;;;;;;;16.35;9.48;;;;;;;;;;5047125;28;20059;-70
2022/05/02 11:07:17;;;;;;;12.45;8.43;;;;;;;;;;5043048;28;20021;-70
2022/05/02 11:09:48;;;;;;;13.57;8.50;;;;;;;;;;5046309;28;20021;-70
2022/05/02 11:12:19;;;;;;;17.15;9.07;;;;;;;;;;5046085;28;20023;-70
2022/05/02 11:14:47;;;;;;;18.45;9.20;;;;;;;;;;5047381;28;20531;-70
2022/05/02 11:17:15;;;;;;;18.08;7.63;;;;;;;;;;5042890;28;20078;-70
2022/05/02 11:23:04;;;;;;;19.63;8.30;;;;;;;;;;5043938;28;20508;-91
2022/05/02 11:26:09;;;;;;;15.15;7.88;;;;;;;;;;5016704;28;20044;-90
2022/05/02 11:28:48;;;;;;;17.23;7.22;;;;;;;;;;4952723;28;20438;-90
2022/05/02 11:31:36;;;;;;;15.25;8.45;;;;;;;;;;4971856;28;20023;-89
2022/05/02 11:34:30;;;;;;;11.68;7.95;;;;;;;;;;5015948;28;20041;-90
2022/05/02 11:36:58;;;;;;;20.73;7.57;;;;;;;;;;4990372;28;20121;-88
2022/05/02 11:39:29;;;;;;;13.55;8.40;;;;;;;;;;5015313;28;20084;-87
2022/05/02 11:42:14;;;;;;;;;;;;;;;;;;;;;
2022/05/02 11:44:58;;;;;;;15.63;8.70;;;;;;;;;;5033380;28;20038;-92
2022/05/02 11:47:46;;;;;;;18.40;8.57;;;;;;;;;;5013762;28;20038;-91
2022/05/02 11:50:36;;;;;;;17.25;9.32;;;;;;;;;;5034678;28;20025;-88
2022/05/02 11:53:06;;;;;;;15.68;8.10;;;;;;;;;;5030806;28;20029;-88
2022/05/02 11:55:34;;;;;;;19.25;8.80;;;;;;;;;;5023774;28;20014;-88
2022/05/02 12:01:35;;;;;;;;;;;;;;;;;;;;;
2022/05/02 12:04:37;;;;;;;;;;;;;;;;;;;;;
2022/05/02 12:07:13;;;;;;;10.65;7.43;;;;;;;;;;5027735;28;20047;-91
2022/05/02 12:10:17;;;;;;;17.60;9.10;;;;;;;;;;5018853;28;20029;-91
2022/05/02 12:12:49;;;;;;;16.00;8.65;;;;;;;;;;5017511;28;20115;-92
2022/05/02 12:18:04;;;;;;;13.43;7.70;;;;;;;;;;4976985;28;20026;-89
2022/05/02 12:20:32;;;;;;;21.35;8.38;;;;;;;;;;5020207;28;20277;-90
2022/05/02 12:23:13;;;;;;;13.82;8.23;;;;;;;;;;5029104;28;20033;-89
2022/05/02 12:25:52;;;;;;;19.77;9.95;;;;;;;;;;5030867;28;20100;-89
2022/05/02 12:28:37;;;;;;;20.15;9.23;;;;;;;;;;5032217;28;20076;-90
2022/05/02 12:31:23;;;;;;;17.35;8.60;;;;;;;;;;5027422;28;20029;-90
2022/05/02 12:34:00;;;;;;;15.75;7.68;;;;;;;;;;5004775;22;20065;-88
2022/05/02 12:36:39;;;;;;;11.38;7.20;;;;;;;;;;5029728;28;20013;-89
2022/05/02 12:39:12;;;;;;;15.77;7.80;;;;;;;;;;5027128;28;20091;-89
2022/05/02 12:42:02;;;;;;;24.52;7.22;;;;;;;;;;5040223;28;20106;-89
2022/05/02 12:44:44;;;;;;;11.25;6.68;;;;;;;;;;5039834;28;20009;-89
2022/05/02 12:47:14;;;;;;;18.27;7.72;;;;;;;;;;5032905;28;20026;-88
2022/05/02 12:50:03;;;;;;;16.60;7.93;;;;;;;;;;5030477;28;20083;-87
2022/05/02 12:52:35;;;;;;;17.40;7.90;;;;;;;;;;5048866;28;20048;-88
2022/05/02 12:55:08;;;;;;;15.90;8.60;;;;;;;;;;5030377;28;20017;-90
2022/05/02 13:00:40;;;;;;;13.00;8.43;;;;;;;;;;5031088;28;20109;-89
2022/05/02 13:03:08;;;;;;;16.02;8.52;;;;;;;;;;5024858;28;21373;-88
2022/05/02 13:05:34;;;;;;;14.00;7.72;;;;;;;;;;5010299;28;20026;-87
2022/05/02 13:08:12;;;;;;;13.20;7.63;;;;;;;;;;5019955;28;20032;-90
2022/05/02 13:10:45;;;;;;;18.30;8.18;;;;;;;;;;5028440;28;20026;-88
2022/05/02 13:13:15;;;;;;;13.68;7.75;;;;;;;;;;5006927;28;20021;-87
2022/05/02 13:15:47;;;;;;;18.48;10.05;;;;;;;;;;5024927;28;20092;-88
2022/05/02 13:18:16;;;;;;;14.77;7.80;;;;;;;;;;5009692;28;20184;-89
2022/05/02 13:20:48;;;;;;;12.05;8.20;;;;;;;;;;5010418;28;20021;-88
2022/05/02 13:23:21;;;;;;;16.17;8.68;;;;;;;;;;5029618;28;20025;-88
2022/05/02 13:25:48;;;;;;;18.15;8.80;;;;;;;;;;5027689;28;20056;-87
2022/05/02 13:28:25;;;;;;;14.75;8.70;;;;;;;;;;5027557;28;20025;-89
2022/05/02 13:30:57;;;;;;;20.98;8.98;;;;;;;;;;5027230;28;20128;-89
2022/05/02 13:33:40;;;;;;;13.77;8.75;;;;;;;;;;5011573;28;20036;-87
2022/05/02 13:36:11;;;;;;;14.65;8.38;;;;;;;;;;5009316;28;20037;-88
2022/05/02 13:39:00;;;;;;;19.77;9.25;;;;;;;;;;5016285;28;20029;-90
2022/05/02 13:41:28;;;;;;;15.50;8.05;;;;;;;;;;5007460;28;20053;-89
2022/05/02 13:44:07;;;;;;;15.85;9.07;;;;;;;;;;5010368;28;20736;-87
2022/05/02 13:46:54;;;;;;;19.42;8.90;;;;;;;;;;5006471;28;20112;-89
2022/05/02 13:49:28;;;;;;;17.92;9.43;;;;;;;;;;5027878;28;20497;-87
2022/05/02 13:52:01;;;;;;;18.50;8.98;;;;;;;;;;5009937;28;20021;-88
2022/05/02 13:54:28;;;;;;;17.83;8.55;;;;;;;;;;5005899;28;20370;-89
2022/05/02 13:56:53;;;;;;;15.30;8.30;;;;;;;;;;5009381;28;20112;-88
2022/05/02 13:59:37;;;;;;;13.65;8.57;;;;;;;;;;5025061;28;20256;-87
2022/05/02 14:02:34;;;;;;;19.95;9.93;;;;;;;;;;5004405;28;20021;-87
2022/05/02 14:05:08;;;;;;;17.08;8.70;;;;;;;;;;5004280;28;20084;-88
2022/05/02 14:07:35;;;;;;;15.88;8.77;;;;;;;;;;5009687;28;20057;-88
2022/05/02 14:10:04;;;;;;;18.67;8.77;;;;;;;;;;5002727;28;20124;-87
2022/05/02 14:12:34;;;;;;;16.98;9.13;;;;;;;;;;5007913;28;20613;-87
2022/05/02 14:15:03;;;;;;;20.10;7.85;;;;;;;;;;5002734;28;20104;-89
2022/05/02 14:17:31;;;;;;;14.07;9.18;;;;;;;;;;5028586;28;20027;-88
2022/05/02 14:20:22;;;;;;;18.98;7.55;;;;;;;;;;5025047;28;20017;-89
2022/05/02 14:22:50;;;;;;;13.43;8.07;;;;;;;;;;5027698;28;20029;-87
2022/05/02 14:25:23;;;;;;;14.75;9.02;;;;;;;;;;5009107;28;20122;-89
2022/05/02 14:27:55;;;;;;;15.95;7.55;;;;;;;;;;5012566;28;20832;-85
2022/05/02 14:30:26;;;;;;;13.65;8.38;;;;;;;;;;5023201;28;20032;-89
2022/05/02 14:32:58;;;;;;;;;;;;;;;;;;5027658;28;20022;-89
2022/05/02 14:35:37;;;;;;;12.95;8.73;;;;;;;;;;5024128;28;19913;-89
2022/05/02 14:38:04;;;;;;;13.75;7.47;;;;;;;;;;5007984;28;20033;-86
2022/05/02 14:40:33;;;;;;;12.55;7.28;;;;;;;;;;5007026;28;20025;-87
2022/05/02 14:43:02;;;;;;;16.17;7.60;;;;;;;;;;5031290;28;20040;-91
2022/05/02 14:45:36;;;;;;;19.48;7.00;;;;;;;;;;5029432;28;20272;-89
2022/05/02 14:48:05;;;;;;;12.82;7.78;;;;;;;;;;5024889;28;20420;-89
2022/05/02 14:50:31;;;;;;;15.32;7.55;;;;;;;;;;5034063;28;20017;-88
2022/05/02 14:52:58;;;;;;;12.48;7.10;;;;;;;;;;5010073;28;20104;-88
2022/05/02 14:55:24;;;;;;;16.60;7.60;;;;;;;;;;5026753;28;20618;-88
2022/05/02 14:57:51;;;;;;;16.83;8.02;;;;;;;;;;5008915;28;20060;-87
2022/05/02 15:00:19;;;;;;;15.27;6.65;;;;;;;;;;5010764;28;20515;-88
2022/05/02 15:02:47;;;;;;;17.30;6.93;;;;;;;;;;5024067;28;20538;-87
2022/05/02 15:05:20;;;;;;;11.82;7.40;;;;;;;;;;5012770;28;20049;-89
2022/05/02 15:08:04;;;;;;;12.68;6.95;;;;;;;;;;5009245;28;20017;-91
2022/05/02 15:10:32;;;;;;;11.82;7.03;;;;;;;;;;5009725;28;20028;-91
2022/05/02 15:13:10;;;;;;;18.13;7.07;;;;;;;;;;5024370;28;20124;-87
2022/05/02 15:15:44;;;;;;;10.75;6.43;;;;;;;;;;5029506;28;20020;-91
2022/05/02 15:21:42;;;;;;;15.40;6.63;;;;;;;;;;5010712;28;20022;-90
2022/05/02 15:24:32;;;;;;;16.23;6.72;;;;;;;;;;5015410;28;20032;-91
2022/05/02 15:36:47;;;;;;;11.18;6.07;;;;;;;;;;5030260;28;20024;-88
2022/05/02 15:39:48;;;;;;;16.42;6.93;;;;;;;;;;5008204;28;20018;-88
2022/05/02 15:42:26;;;;;;;12.90;6.32;;;;;;;;;;4931903;29;20031;-89
2022/05/02 15:44:53;;;;;;;11.38;5.57;;;;;;;;;;4955641;28;20137;-88